createdAt,value
2018-09-04T00:02:11.991Z,100.00
2018-09-04T00:04:44.059Z,100.00
2018-09-04T00:07:19.248Z,100.00
2018-09-04T00:09:52.078Z,100.00
2018-09-04T00:12:30.922Z,100.00
2018-09-04T00:15:03.126Z,100.00
2018-09-04T00:17:35.252Z,100.00
2018-09-04T00:20:07.418Z,100.00
2018-09-04T00:22:39.555Z,100.00
2018-09-04T00:25:11.631Z,100.00
2018-09-04T00:27:43.708Z,100.00
2018-09-04T00:30:15.775Z,100.00
2018-09-04T00:32:47.827Z,100.00
2018-09-04T00:35:19.851Z,100.00
2018-09-04T00:37:52.064Z,100.00
2018-09-04T00:40:24.134Z,100.00
2018-09-04T00:42:56.176Z,100.00
2018-09-04T00:45:28.225Z,100.00
2018-09-04T00:48:00.401Z,100.00
2018-09-04T00:50:32.399Z,100.00
2018-09-04T00:53:04.501Z,100.00
2018-09-04T00:56:39.889Z,100.00
2018-09-04T00:59:11.931Z,100.00
2018-09-04T01:01:43.946Z,100.00
2018-09-04T01:04:16.030Z,100.00
2018-09-04T01:06:48.093Z,100.00
2018-09-04T01:09:21.599Z,100.00
2018-09-04T01:11:53.639Z,100.00
2018-09-04T01:14:25.721Z,100.00
2018-09-04T01:16:57.763Z,100.00
2018-09-04T01:19:29.784Z,100.00
2018-09-04T01:22:01.813Z,100.00
2018-09-04T01:24:33.826Z,100.00
2018-09-04T01:27:05.852Z,100.00
2018-09-04T01:29:37.920Z,100.00
2018-09-04T01:32:10.004Z,100.00
2018-09-04T01:34:42.111Z,100.00
2018-09-04T01:37:14.238Z,100.00
2018-09-04T01:39:46.240Z,100.00
2018-09-04T01:42:18.329Z,100.00
2018-09-04T01:44:50.358Z,100.00
2018-09-04T01:47:22.373Z,100.00
2018-09-04T01:49:54.432Z,100.00
2018-09-04T01:52:26.405Z,100.00
2018-09-04T01:54:58.459Z,100.00
2018-09-04T01:57:30.495Z,100.00
2018-09-04T02:00:02.519Z,100.00
2018-09-04T02:02:34.544Z,100.00
2018-09-04T02:05:06.588Z,100.00
2018-09-04T02:07:38.654Z,100.00
2018-09-04T02:10:10.686Z,100.00
2018-09-04T02:12:42.743Z,100.00
2018-09-04T02:15:14.799Z,100.00
2018-09-04T02:17:46.884Z,100.00
2018-09-04T02:20:18.946Z,100.00
2018-09-04T02:22:50.997Z,100.00
2018-09-04T02:25:23.026Z,100.00
2018-09-04T02:27:55.044Z,100.00
2018-09-04T02:30:27.043Z,100.00
2018-09-04T02:32:59.039Z,100.00
2018-09-04T02:35:31.054Z,100.00
2018-09-04T02:38:03.062Z,100.00
2018-09-04T02:40:35.198Z,100.00
2018-09-04T02:43:07.199Z,100.00
2018-09-04T02:45:39.228Z,100.00
2018-09-04T02:48:11.335Z,100.00
2018-09-04T02:50:43.358Z,100.00
2018-09-04T02:53:15.426Z,100.00
2018-09-04T02:55:47.487Z,100.00
2018-09-04T02:58:19.619Z,100.00
2018-09-04T03:00:51.716Z,100.00
2018-09-04T03:03:23.754Z,100.00
2018-09-04T03:05:55.808Z,100.00
2018-09-04T03:08:27.813Z,100.00
2018-09-04T03:10:59.979Z,100.00
2018-09-04T03:13:32.023Z,100.00
2018-09-04T03:16:04.257Z,100.00
2018-09-04T03:18:36.319Z,100.00
2018-09-04T03:21:08.460Z,100.00
2018-09-04T03:23:40.491Z,100.00
2018-09-04T03:26:12.598Z,100.00
2018-09-04T03:28:44.696Z,100.00
2018-09-04T03:31:17.080Z,100.00
2018-09-04T03:33:49.295Z,100.00
2018-09-04T03:36:21.395Z,100.00
2018-09-04T03:38:53.503Z,100.00
2018-09-04T03:41:25.594Z,100.00
2018-09-04T03:43:57.722Z,100.00
2018-09-04T03:46:29.738Z,100.00
2018-09-04T03:49:01.810Z,100.00
2018-09-04T03:51:33.893Z,100.00
2018-09-04T03:54:06.149Z,100.00
2018-09-04T03:56:38.299Z,100.00
2018-09-04T03:59:10.570Z,100.00
2018-09-04T04:01:43.030Z,100.00
2018-09-04T04:04:15.142Z,100.00
2018-09-04T04:06:47.220Z,100.00
2018-09-04T04:09:19.294Z,100.00
2018-09-04T04:11:51.505Z,100.00
2018-09-04T04:14:23.573Z,100.00
2018-09-04T04:16:55.827Z,100.00
2018-09-04T04:19:27.899Z,100.00
2018-09-04T04:21:59.981Z,100.00
2018-09-04T04:24:45.172Z,100.00
2018-09-04T04:27:17.283Z,100.00
2018-09-04T04:29:49.421Z,100.00
2018-09-04T04:32:21.567Z,100.00
2018-09-04T04:34:53.835Z,100.00
2018-09-04T04:37:25.915Z,100.00
2018-09-04T04:39:58.123Z,100.00
2018-09-04T04:42:30.148Z,100.00
2018-09-04T04:45:02.264Z,100.00
2018-09-04T04:47:40.000Z,100.00
2018-09-04T04:50:12.167Z,100.00
2018-09-04T04:52:44.248Z,100.00
2018-09-04T04:55:16.390Z,100.00
2018-09-04T04:57:48.448Z,100.00
2018-09-04T05:00:20.618Z,100.00
2018-09-04T05:02:52.608Z,100.00
2018-09-04T05:05:25.807Z,100.00
2018-09-04T05:07:57.914Z,100.00
2018-09-04T05:10:29.974Z,100.00
2018-09-04T05:13:02.081Z,100.00
2018-09-04T05:15:34.147Z,100.00
2018-09-04T05:18:06.227Z,100.00
2018-09-04T05:20:38.446Z,100.00
2018-09-04T05:23:10.534Z,100.00
2018-09-04T05:25:42.628Z,100.00
2018-09-04T05:28:14.686Z,100.00
2018-09-04T05:30:46.776Z,100.00
2018-09-04T05:33:23.911Z,100.00
2018-09-04T05:35:57.359Z,100.00
2018-09-04T05:38:30.502Z,100.00
2018-09-04T05:41:02.595Z,100.00
2018-09-04T05:43:47.042Z,100.00
2018-09-04T05:46:26.515Z,100.00
2018-09-04T05:48:59.085Z,100.00
2018-09-04T05:51:31.223Z,100.00
2018-09-04T05:54:03.406Z,100.00
2018-09-04T05:56:35.571Z,100.00
2018-09-04T05:59:07.705Z,100.00
2018-09-04T06:01:39.907Z,100.00
2018-09-04T06:04:12.115Z,100.00
2018-09-04T06:06:44.341Z,100.00
2018-09-04T06:09:16.621Z,100.00
2018-09-04T06:11:48.700Z,100.00
2018-09-04T06:14:20.694Z,100.00
2018-09-04T06:16:52.829Z,100.00
2018-09-04T06:19:24.918Z,100.00
2018-09-04T06:21:56.987Z,100.00
2018-09-04T06:24:29.124Z,100.00
2018-09-04T06:27:01.380Z,100.00
2018-09-04T06:29:33.757Z,100.00
2018-09-04T06:32:05.865Z,100.00
2018-09-04T06:34:37.993Z,100.00
2018-09-04T06:37:10.104Z,100.00
2018-09-04T06:39:42.303Z,100.00
2018-09-04T06:42:14.412Z,100.00
2018-09-04T06:44:46.567Z,100.00
2018-09-04T06:47:18.735Z,100.00
2018-09-04T06:49:50.855Z,100.00
2018-09-04T06:52:23.076Z,100.00
2018-09-04T06:54:55.187Z,98.98
2018-09-04T06:57:27.377Z,98.82
2018-09-04T06:59:59.506Z,98.75
2018-09-04T07:02:31.635Z,95.63
2018-09-04T07:05:03.840Z,93.22
2018-09-04T07:07:35.947Z,95.35
2018-09-04T07:10:08.419Z,94.89
2018-09-04T07:12:40.539Z,94.46
2018-09-04T07:15:12.612Z,92.56
2018-09-04T07:17:44.724Z,95.05
2018-09-04T07:20:16.896Z,95.54
2018-09-04T07:22:49.016Z,95.32
2018-09-04T07:25:21.140Z,96.19
2018-09-04T07:27:53.249Z,97.05
2018-09-04T07:30:25.352Z,96.79
2018-09-04T07:32:57.471Z,97.61
2018-09-04T07:35:29.587Z,95.65
2018-09-04T07:38:01.625Z,94.98
2018-09-04T07:40:33.672Z,94.20
2018-09-04T07:43:05.824Z,95.35
2018-09-04T07:45:37.903Z,94.17
2018-09-04T07:48:10.017Z,95.18
2018-09-04T07:50:43.115Z,93.94
2018-09-04T07:53:15.268Z,95.87
2018-09-04T07:55:47.439Z,95.76
2018-09-04T07:58:19.664Z,96.13
2018-09-04T08:00:51.918Z,96.58
2018-09-04T08:03:24.028Z,96.58
2018-09-04T08:05:56.137Z,96.73
2018-09-04T08:08:28.200Z,99.78
2018-09-04T08:11:00.306Z,98.28
2018-09-04T08:13:32.388Z,98.76
2018-09-04T08:16:04.837Z,98.30
2018-09-04T08:18:36.980Z,99.99
2018-09-04T08:21:09.313Z,99.60
2018-09-04T08:23:41.397Z,100.00
2018-09-04T08:26:13.523Z,100.00
2018-09-04T08:28:45.596Z,98.53
2018-09-04T08:31:17.715Z,99.21
2018-09-04T08:33:49.762Z,97.87
2018-09-04T08:36:21.820Z,96.42
2018-09-04T08:38:53.898Z,97.28
2018-09-04T08:41:25.963Z,94.97
2018-09-04T08:43:58.031Z,97.41
2018-09-04T08:46:30.096Z,96.27
2018-09-04T08:49:02.170Z,93.26
2018-09-04T08:51:34.333Z,95.10
2018-09-04T08:54:06.488Z,94.37
2018-09-04T08:56:38.553Z,93.45
2018-09-04T08:59:10.607Z,93.09
2018-09-04T09:01:42.628Z,92.11
2018-09-04T09:04:14.635Z,89.29
2018-09-04T09:06:46.697Z,87.67
2018-09-04T09:09:18.759Z,89.63
2018-09-04T09:11:50.783Z,89.21
2018-09-04T09:14:22.821Z,89.89
2018-09-04T09:16:54.871Z,88.72
2018-09-04T09:19:26.934Z,87.07
2018-09-04T09:21:58.965Z,88.08
2018-09-04T09:24:30.994Z,85.48
2018-09-04T09:27:03.158Z,86.73
2018-09-04T09:29:35.243Z,84.04
2018-09-04T09:32:07.334Z,83.88
2018-09-04T09:34:39.374Z,83.36
2018-09-04T09:37:11.464Z,79.74
2018-09-04T09:39:43.521Z,77.52
2018-09-04T09:42:15.552Z,78.36
2018-09-04T09:44:47.581Z,73.51
2018-09-04T09:47:19.595Z,74.20
2018-09-04T09:49:51.672Z,76.41
2018-09-04T09:52:23.757Z,77.85
2018-09-04T09:54:55.800Z,77.15
2018-09-04T09:57:28.858Z,74.44
2018-09-04T10:00:01.817Z,74.94
2018-09-04T10:02:39.432Z,74.64
2018-09-04T10:05:11.470Z,73.50
2018-09-04T10:07:43.572Z,71.77
2018-09-04T10:10:15.543Z,72.29
2018-09-04T10:12:47.622Z,71.77
2018-09-04T10:15:20.684Z,69.23
2018-09-04T10:17:52.727Z,68.73
2018-09-04T10:20:24.791Z,70.95
2018-09-04T10:22:56.887Z,68.71
2018-09-04T10:25:29.018Z,68.86
2018-09-04T10:28:01.059Z,67.46
2018-09-04T10:30:33.105Z,67.40
2018-09-04T10:33:05.194Z,68.63
2018-09-04T10:35:37.277Z,68.14
2018-09-04T10:38:09.322Z,70.35
2018-09-04T10:40:43.077Z,70.32
2018-09-04T10:43:15.025Z,71.15
2018-09-04T10:45:52.932Z,72.13
2018-09-04T10:48:25.750Z,67.42
2018-09-04T10:50:58.376Z,66.00
2018-09-04T10:53:30.504Z,64.81
2018-09-04T10:56:02.615Z,65.84
2018-09-04T10:58:34.691Z,66.46
2018-09-04T11:01:06.812Z,67.80
2018-09-04T11:03:39.231Z,68.42
2018-09-04T11:06:13.347Z,68.10
2018-09-04T11:08:45.456Z,68.03
2018-09-04T11:11:17.748Z,65.60
2018-09-04T11:13:49.797Z,62.37
2018-09-04T11:16:21.966Z,61.50
2018-09-04T11:18:54.053Z,57.56
2018-09-04T11:21:26.071Z,53.74
2018-09-04T11:23:58.154Z,54.17
2018-09-04T11:26:30.264Z,52.12
2018-09-04T11:29:04.848Z,58.40
2018-09-04T11:31:37.011Z,56.99
2018-09-04T11:34:09.074Z,52.13
2018-09-04T11:36:41.286Z,57.15
2018-09-04T11:39:13.446Z,59.88
2018-09-04T11:41:45.605Z,56.66
2018-09-04T11:44:17.667Z,56.19
2018-09-04T11:46:49.753Z,58.49
2018-09-04T11:49:21.747Z,56.33
2018-09-04T11:51:53.788Z,55.37
2018-09-04T11:54:28.032Z,55.85
2018-09-04T11:57:00.134Z,54.50
2018-09-04T11:59:37.331Z,55.50
2018-09-04T12:02:41.391Z,56.35
2018-09-04T12:05:13.530Z,53.37
2018-09-04T12:07:45.610Z,51.83
2018-09-04T12:10:17.693Z,52.74
2018-09-04T12:12:49.843Z,49.96
2018-09-04T12:15:21.919Z,50.86
2018-09-04T12:17:54.040Z,50.43
2018-09-04T12:20:36.381Z,51.53
2018-09-04T12:23:08.564Z,51.71
2018-09-04T12:25:41.258Z,57.23
2018-09-04T12:28:13.709Z,54.54
2018-09-04T12:30:46.049Z,54.29
2018-09-04T12:33:20.174Z,52.71
2018-09-04T12:35:52.244Z,58.63
2018-09-04T12:38:26.068Z,58.92
2018-09-04T12:41:05.103Z,55.08
2018-09-04T12:43:37.688Z,53.08
2018-09-04T12:46:09.824Z,49.65
2018-09-04T12:48:47.786Z,51.65
2018-09-04T12:51:19.863Z,51.17
2018-09-04T12:53:51.922Z,48.02
2018-09-04T12:56:24.124Z,52.92
2018-09-04T12:58:56.167Z,48.79
2018-09-04T13:01:28.266Z,50.73
2018-09-04T13:04:00.331Z,51.19
2018-09-04T13:06:32.453Z,54.63
2018-09-04T13:09:05.570Z,58.14
2018-09-04T13:11:37.600Z,58.76
2018-09-04T13:14:09.692Z,60.86
2018-09-04T13:16:41.789Z,59.57
2018-09-04T13:19:13.862Z,58.96
2018-09-04T13:21:46.075Z,61.41
2018-09-04T13:24:18.169Z,58.28
2018-09-04T13:26:50.233Z,60.01
2018-09-04T13:29:22.309Z,54.33
2018-09-04T13:31:54.379Z,53.45
2018-09-04T13:34:26.602Z,51.88
2018-09-04T13:36:58.597Z,56.91
2018-09-04T13:39:30.692Z,54.05
2018-09-04T13:42:02.799Z,51.69
2018-09-04T13:44:35.068Z,55.77
2018-09-04T13:47:07.167Z,55.03
2018-09-04T13:49:39.317Z,56.42
2018-09-04T13:52:11.307Z,58.04
2018-09-04T13:54:43.258Z,58.95
2018-09-04T13:57:15.300Z,64.51
2018-09-04T13:59:47.299Z,66.30
2018-09-04T14:02:19.283Z,62.38
2018-09-04T14:04:51.394Z,57.49
2018-09-04T14:07:23.373Z,56.59
2018-09-04T14:09:55.337Z,55.68
2018-09-04T14:12:27.303Z,51.26
2018-09-04T14:14:59.322Z,47.93
2018-09-04T14:17:31.336Z,49.75
2018-09-04T14:20:03.355Z,46.13
2018-09-04T14:22:35.372Z,45.73
2018-09-04T14:25:07.291Z,43.47
2018-09-04T14:27:39.246Z,44.01
2018-09-04T14:30:18.186Z,43.61
2018-09-04T14:32:43.158Z,44.99
2018-09-04T14:35:15.174Z,43.62
2018-09-04T14:37:47.163Z,43.68
2018-09-04T14:40:19.163Z,42.60
2018-09-04T14:42:51.173Z,45.49
2018-09-04T14:45:24.184Z,44.17
2018-09-04T14:47:56.328Z,44.15
2018-09-04T14:50:28.265Z,47.01
2018-09-04T14:53:00.254Z,42.57
2018-09-04T14:55:32.223Z,42.42
2018-09-04T14:58:04.593Z,42.09
2018-09-04T15:00:36.612Z,45.45
2018-09-04T15:03:08.611Z,42.02
2018-09-04T15:05:40.647Z,45.64
2018-09-04T15:08:12.682Z,41.30
2018-09-04T15:10:44.694Z,44.98
2018-09-04T15:13:16.739Z,44.25
2018-09-04T15:15:48.712Z,47.23
2018-09-04T15:18:20.684Z,47.03
2018-09-04T15:20:52.641Z,50.29
2018-09-04T15:23:24.591Z,48.04
2018-09-04T15:25:56.674Z,43.91
2018-09-04T15:28:28.651Z,43.03
2018-09-04T15:31:00.615Z,47.75
2018-09-04T15:33:32.725Z,49.62
2018-09-04T15:36:04.914Z,49.04
2018-09-04T15:38:36.925Z,49.96
2018-09-04T15:41:08.893Z,52.63
2018-09-04T15:43:40.899Z,51.46
2018-09-04T15:46:12.928Z,53.40
2018-09-04T15:48:48.355Z,51.57
2018-09-04T15:51:20.362Z,56.05
2018-09-04T15:53:52.382Z,51.10
2018-09-04T15:56:24.315Z,51.37
2018-09-04T15:58:56.312Z,52.34
2018-09-04T16:01:28.294Z,55.37
2018-09-04T16:04:00.345Z,59.13
2018-09-04T16:06:32.439Z,57.04
2018-09-04T16:09:05.028Z,61.18
2018-09-04T16:11:37.004Z,60.96
2018-09-04T16:14:08.984Z,64.49
2018-09-04T16:16:40.962Z,61.40
2018-09-04T16:19:12.984Z,64.26
2018-09-04T16:21:45.011Z,64.01
2018-09-04T16:24:17.106Z,62.58
2018-09-04T16:26:49.106Z,62.40
2018-09-04T16:29:21.475Z,61.47
2018-09-04T16:31:53.428Z,63.23
2018-09-04T16:34:25.569Z,61.77
2018-09-04T16:36:57.415Z,61.93
2018-09-04T16:39:29.454Z,64.38
2018-09-04T16:42:01.418Z,61.33
2018-09-04T16:44:33.405Z,63.20
2018-09-04T16:47:05.410Z,64.78
2018-09-04T16:49:37.354Z,62.78
2018-09-04T16:52:09.363Z,66.11
2018-09-04T16:54:41.354Z,64.92
2018-09-04T16:57:13.451Z,66.77
2018-09-04T16:59:45.537Z,67.31
2018-09-04T17:02:17.506Z,67.48
2018-09-04T17:04:49.463Z,68.89
2018-09-04T17:07:21.433Z,70.12
2018-09-04T17:09:53.481Z,70.26
2018-09-04T17:12:25.517Z,71.62
2018-09-04T17:14:57.470Z,70.52
2018-09-04T17:17:29.495Z,71.99
2018-09-04T17:20:01.545Z,72.26
2018-09-04T17:22:33.523Z,72.12
2018-09-04T17:25:05.539Z,75.01
2018-09-04T17:27:37.558Z,75.95
2018-09-04T17:30:09.568Z,77.99
2018-09-04T17:32:41.598Z,75.20
2018-09-04T17:35:13.590Z,76.88
2018-09-04T17:37:45.535Z,76.78
2018-09-04T17:40:17.546Z,79.24
2018-09-04T17:42:49.703Z,79.67
2018-09-04T17:45:21.662Z,80.18
2018-09-04T17:47:53.736Z,81.02
2018-09-04T17:50:25.735Z,82.11
2018-09-04T17:52:57.951Z,83.03
2018-09-04T17:55:30.011Z,83.27
2018-09-04T17:58:02.043Z,83.54
2018-09-04T18:00:34.167Z,83.21
2018-09-04T18:03:06.229Z,83.61
2018-09-04T18:05:38.239Z,84.70
2018-09-04T18:08:10.352Z,84.54
2018-09-04T18:10:42.353Z,85.44
2018-09-04T18:13:14.428Z,85.63
2018-09-04T18:15:46.575Z,85.82
2018-09-04T18:18:18.548Z,86.98
2018-09-04T18:20:50.539Z,87.35
2018-09-04T18:23:22.566Z,88.73
2018-09-04T18:25:54.544Z,88.79
2018-09-04T18:28:26.515Z,90.45
2018-09-04T18:30:58.631Z,90.58
2018-09-04T18:33:30.726Z,91.51
2018-09-04T18:36:02.749Z,91.53
2018-09-04T18:38:34.798Z,91.59
2018-09-04T18:41:07.126Z,92.64
2018-09-04T18:43:39.171Z,93.18
2018-09-04T18:46:11.178Z,93.49
2018-09-04T18:48:43.220Z,94.57
2018-09-04T18:51:15.120Z,93.95
2018-09-04T18:53:47.071Z,94.45
2018-09-04T18:56:19.060Z,94.98
2018-09-04T18:58:51.018Z,94.84
2018-09-04T19:01:23.088Z,95.04
2018-09-04T19:03:55.053Z,95.92
2018-09-04T19:06:27.099Z,96.19
2018-09-04T19:08:59.043Z,97.11
2018-09-04T19:11:31.104Z,97.46
2018-09-04T19:14:03.170Z,98.65
2018-09-04T19:16:35.186Z,99.88
2018-09-04T19:19:07.199Z,100.00
2018-09-04T19:21:39.224Z,100.00
2018-09-04T19:24:11.269Z,100.00
2018-09-04T19:26:43.347Z,100.00
2018-09-04T19:29:15.449Z,100.00
2018-09-04T19:31:47.633Z,100.00
2018-09-04T19:34:19.579Z,100.00
2018-09-04T19:36:51.663Z,100.00
2018-09-04T19:39:23.855Z,100.00
2018-09-04T19:41:55.814Z,100.00
2018-09-04T19:44:27.794Z,100.00
2018-09-04T19:47:00.159Z,100.00
2018-09-04T19:49:32.139Z,100.00
2018-09-04T19:52:04.338Z,100.00
2018-09-04T19:54:36.490Z,100.00
2018-09-04T19:57:08.435Z,100.00
2018-09-04T19:59:40.430Z,100.00
2018-09-04T20:02:12.489Z,100.00
2018-09-04T20:04:44.616Z,100.00
2018-09-04T20:07:16.624Z,100.00
2018-09-04T20:09:48.742Z,100.00
2018-09-04T20:12:20.744Z,100.00
2018-09-04T20:14:52.703Z,100.00
2018-09-04T20:17:24.671Z,100.00
2018-09-04T20:19:56.746Z,100.00
2018-09-04T20:25:44.922Z,100.00
2018-09-04T20:28:16.887Z,100.00
2018-09-04T20:30:48.938Z,100.00
2018-09-04T20:33:20.958Z,100.00
2018-09-04T20:35:52.941Z,100.00
2018-09-04T20:38:24.963Z,100.00
2018-09-04T20:40:56.909Z,100.00
2018-09-04T20:43:28.888Z,100.00
2018-09-04T20:46:00.922Z,100.00
2018-09-04T20:48:32.897Z,100.00
2018-09-04T20:51:04.923Z,100.00
2018-09-04T20:53:36.923Z,100.00
2018-09-04T20:56:08.881Z,100.00
2018-09-04T20:58:52.371Z,100.00
2018-09-04T21:01:35.882Z,100.00
2018-09-04T21:04:19.374Z,100.00
2018-09-04T21:06:52.054Z,100.00
2018-09-04T21:09:35.116Z,100.00
2018-09-04T21:12:07.268Z,100.00
2018-09-04T21:14:39.303Z,100.00
2018-09-04T21:17:11.314Z,100.00
2018-09-04T21:19:43.355Z,100.00
2018-09-04T21:22:15.360Z,100.00
2018-09-04T21:24:47.327Z,100.00
2018-09-04T21:27:19.290Z,100.00
2018-09-04T21:29:51.335Z,100.00
2018-09-04T21:32:23.311Z,100.00
2018-09-04T21:34:55.366Z,100.00
2018-09-04T21:37:27.327Z,100.00
2018-09-04T21:39:59.435Z,100.00
2018-09-04T21:42:31.420Z,100.00
2018-09-04T21:45:03.772Z,100.00
2018-09-04T21:47:35.710Z,100.00
2018-09-04T21:50:07.999Z,100.00
2018-09-04T21:52:40.007Z,100.00
2018-09-04T21:55:12.091Z,100.00
2018-09-04T21:57:44.041Z,100.00
2018-09-04T22:00:21.750Z,100.00
2018-09-04T22:02:54.680Z,100.00
2018-09-04T22:05:26.783Z,100.00
2018-09-04T22:07:58.738Z,100.00
2018-09-04T22:10:30.711Z,100.00
2018-09-04T22:13:02.725Z,100.00
2018-09-04T22:15:34.674Z,100.00
2018-09-04T22:18:06.612Z,100.00
2018-09-04T22:20:38.580Z,100.00
2018-09-04T22:23:10.534Z,100.00
2018-09-04T22:25:42.492Z,100.00
2018-09-04T22:28:14.591Z,100.00
2018-09-04T22:30:46.562Z,100.00
2018-09-04T22:33:18.527Z,100.00
2018-09-04T22:35:50.511Z,100.00
2018-09-04T22:38:22.460Z,100.00
2018-09-04T22:40:54.512Z,100.00
2018-09-04T22:43:26.447Z,100.00
2018-09-04T22:45:58.415Z,100.00
2018-09-04T22:48:30.355Z,100.00
2018-09-04T22:51:08.112Z,100.00
2018-09-04T22:53:40.053Z,100.00
2018-09-04T22:56:12.030Z,100.00
2018-09-04T22:58:43.954Z,100.00
2018-09-04T23:01:15.970Z,100.00
2018-09-04T23:03:48.002Z,100.00
2018-09-04T23:06:19.955Z,100.00
2018-09-04T23:08:51.903Z,100.00
2018-09-04T23:11:23.850Z,100.00
2018-09-04T23:13:55.802Z,100.00
2018-09-04T23:16:27.750Z,100.00
2018-09-04T23:18:59.692Z,100.00
2018-09-04T23:21:31.678Z,100.00
2018-09-04T23:24:03.641Z,100.00
2018-09-04T23:26:35.598Z,100.00
2018-09-04T23:29:07.530Z,100.00
2018-09-04T23:31:39.490Z,100.00
2018-09-04T23:34:11.512Z,100.00
2018-09-04T23:36:43.471Z,100.00
2018-09-04T23:39:15.523Z,100.00
2018-09-04T23:41:47.559Z,100.00
2018-09-04T23:44:19.511Z,100.00
2018-09-04T23:46:51.567Z,100.00
2018-09-04T23:49:23.532Z,100.00
2018-09-04T23:51:55.579Z,100.00
2018-09-04T23:54:27.613Z,100.00
2018-09-04T23:56:59.720Z,100.00
2018-09-04T23:59:31.703Z,100.00
